Time;durP1;ratioP1;P1;durP2;ratioP2;P2;SDS_P1;SDS_P2;PMS_P1;PMS_P2;Temp;Humidity;BMP_temperature;BMP_pressure;BME280_temperature;BME280_humidity;BME280_pressure;Samples;Min_cycle;Max_cycle;Signal;HPM_P1;HPM_P2
2022/02/07 08:24:15;;;;;;;18.08;3.65;;;2.50;94.20;;;;;;5071858;28;20386;-59
2022/02/07 08:26:42;;;;;;;26.83;3.97;;;2.40;94.30;;;;;;5069435;28;20124;-56
2022/02/07 08:29:09;;;;;;;18.88;3.08;;;2.50;94.30;;;;;;5050258;28;20069;-57
2022/02/07 08:31:36;;;;;;;23.30;4.00;;;2.60;94.20;;;;;;5050335;28;20495;-52
2022/02/07 08:34:02;;;;;;;27.60;4.28;;;2.70;93.90;;;;;;5069322;28;20411;-58
2022/02/07 08:36:29;;;;;;;21.20;3.33;;;2.80;93.80;;;;;;5069182;28;20369;-58
2022/02/07 08:38:56;;;;;;;23.58;4.00;;;2.90;93.60;;;;;;5056735;28;20091;-60
2022/02/07 08:41:23;;;;;;;21.77;3.60;;;3.10;93.80;;;;;;5050056;28;20041;-58
2022/02/07 08:43:51;;;;;;;18.75;4.22;;;3.20;93.40;;;;;;5055474;28;20041;-59
2022/02/07 08:46:18;;;;;;;23.35;4.68;;;3.30;93.20;;;;;;5068006;28;20068;-57
2022/02/07 08:48:45;;;;;;;18.45;3.95;;;3.40;93.00;;;;;;5050556;28;20034;-62
2022/02/07 08:51:11;;;;;;;21.55;6.22;;;3.50;92.90;;;;;;5049797;28;20038;-55
2022/02/07 08:53:42;;;;;;;17.83;3.38;;;3.60;92.80;;;;;;5061517;28;20395;-57
2022/02/07 08:56:09;;;;;;;21.65;3.88;;;3.60;92.60;;;;;;5061841;28;20071;-60
2022/02/07 08:58:37;;;;;;;22.70;3.85;;;3.80;92.60;;;;;;5065760;28;20495;-55
2022/02/07 09:01:24;;;;;;;19.40;4.13;;;3.90;92.30;;;;;;5050469;28;20045;-63
2022/02/07 09:06:38;;;;;;;19.15;3.55;;;4.10;91.90;;;;;;5051668;28;20542;-60
2022/02/07 09:11:32;;;;;;;20.45;3.53;;;4.30;91.60;;;;;;5058501;28;20037;-59
2022/02/07 09:14:01;;;;;;;24.20;3.30;;;4.30;91.50;;;;;;5067571;28;20051;-61
2022/02/07 09:16:33;;;;;;;18.10;3.78;;;4.40;91.40;;;;;;5055930;28;20052;-61
2022/02/07 09:18:59;;;;;;;17.48;3.38;;;4.50;91.30;;;;;;5059361;28;20975;-55
2022/02/07 09:21:28;;;;;;;21.20;4.25;;;4.50;91.20;;;;;;5059330;28;20053;-60
2022/02/07 09:23:54;;;;;;;20.52;3.53;;;4.60;91.00;;;;;;5061993;28;20593;-61
2022/02/07 09:26:21;;;;;;;20.08;3.95;;;4.70;90.90;;;;;;5062608;28;20064;-58
2022/02/07 09:28:48;;;;;;;17.85;3.05;;;4.80;90.70;;;;;;5049538;28;20087;-60
2022/02/07 09:31:15;;;;;;;19.55;4.78;;;4.80;90.60;;;;;;5053397;28;20048;-62
2022/02/07 09:33:44;;;;;;;21.70;3.88;;;4.90;90.40;;;;;;5055026;28;20089;-61
2022/02/07 09:36:11;;;;;;;19.45;4.53;;;4.90;90.40;;;;;;5047992;28;20055;-57
2022/02/07 09:42:05;;;;;;;19.92;4.05;;;5.10;90.00;;;;;;5043802;28;20074;-61
2022/02/07 09:44:42;;;;;;;21.17;3.83;;;5.20;89.80;;;;;;5045759;28;20196;-58
2022/02/07 09:47:09;;;;;;;19.73;4.95;;;5.30;89.40;;;;;;5053055;28;20056;-57
2022/02/07 09:49:36;;;;;;;14.75;3.63;;;5.30;89.20;;;;;;5053308;28;20419;-60
2022/02/07 09:52:04;;;;;;;19.30;3.75;;;5.40;89.20;;;;;;5053543;28;20041;-58
2022/02/07 09:54:31;;;;;;;14.50;3.80;;;5.60;89.40;;;;;;5039675;28;20033;-60
2022/02/07 09:56:58;;;;;;;13.77;3.28;;;5.60;88.40;;;;;;5045547;28;20385;-58
2022/02/07 09:59:28;;;;;;;17.33;3.55;;;5.70;88.00;;;;;;5053009;28;20036;-61
2022/02/07 10:01:57;;;;;;;20.13;4.00;;;5.80;87.60;;;;;;5043378;28;20041;-65
2022/02/07 10:04:27;;;;;;;19.50;3.85;;;5.80;87.20;;;;;;5054519;28;20045;-55
2022/02/07 10:14:54;;;;;;;13.27;3.80;;;6.00;86.40;;;;;;5053099;28;20052;-57
2022/02/07 10:17:36;;;;;;;19.27;3.45;;;6.10;86.40;;;;;;5034993;28;20119;-54
2022/02/07 10:42:00;;;;;;;24.05;3.72;;;6.30;85.60;;;;;;5053681;28;20041;-60
2022/02/07 10:44:21;;;;;;;20.15;4.35;;;6.30;85.30;;;;;;5034090;28;20385;-57
2022/02/07 10:46:48;;;;;;;20.85;3.60;;;6.40;85.00;;;;;;5046290;28;20071;-59
2022/02/07 10:49:19;;;;;;;21.77;3.85;;;6.30;84.50;;;;;;5036643;28;20043;-56
2022/02/07 10:51:46;;;;;;;20.73;4.20;;;6.40;84.40;;;;;;5040563;28;20048;-60
2022/02/07 10:54:13;;;;;;;23.55;4.40;;;6.40;84.70;;;;;;5035001;28;20047;-60
2022/02/07 10:56:45;;;;;;;19.55;3.95;;;6.40;84.70;;;;;;5033845;28;20065;-56
2022/02/07 10:59:13;;;;;;;17.92;3.53;;;6.50;84.40;;;;;;5033735;28;20044;-58
2022/02/07 11:04:16;;;;;;;21.48;5.07;;;6.50;84.60;;;;;;5052104;28;20523;-60
2022/02/07 11:06:45;;;;;;;21.95;6.72;;;6.60;84.30;;;;;;5051236;28;20045;-57
2022/02/07 11:09:26;;;;;;;20.35;5.78;;;6.60;84.10;;;;;;5034124;28;20048;-59
2022/02/07 11:12:19;;;;;;;21.63;4.97;;;6.60;83.60;;;;;;5037376;28;20432;-60
2022/02/07 11:14:54;;;;;;;19.00;3.95;;;6.70;83.60;;;;;;5052331;28;20386;-57
2022/02/07 11:20:15;;;;;;;18.02;3.50;;;6.80;82.80;;;;;;5052206;28;20399;-51
2022/02/07 11:22:53;;;;;;;21.05;4.00;;;6.80;82.80;;;;;;5051629;28;20049;-58
2022/02/07 11:25:39;;;;;;;15.73;3.65;;;6.90;83.10;;;;;;5052889;28;20473;-53
2022/02/07 11:28:06;;;;;;;19.45;4.13;;;7.00;81.50;;;;;;5053100;28;20091;-58
2022/02/07 11:30:33;;;;;;;17.17;3.80;;;7.10;80.90;;;;;;5053120;28;20069;-59
2022/02/07 11:33:00;;;;;;;18.35;3.33;;;7.10;79.90;;;;;;5052789;28;20044;-55
2022/02/07 11:35:27;;;;;;;13.73;4.63;;;7.10;81.40;;;;;;5052827;28;20036;-59
2022/02/07 11:37:54;;;;;;;18.75;3.90;;;7.20;81.40;;;;;;5052746;28;20037;-63
2022/02/07 11:40:21;;;;;;;12.30;3.03;;;7.30;79.90;;;;;;5050443;28;20041;-54
2022/02/07 11:42:47;;;;;;;16.25;3.63;;;7.30;80.00;;;;;;5052709;28;20094;-53
2022/02/07 11:45:14;;;;;;;18.80;3.85;;;7.40;80.00;;;;;;5052699;28;20068;-57
2022/02/07 11:47:42;;;;;;;19.75;4.03;;;7.40;79.10;;;;;;5052506;28;20048;-59
2022/02/07 11:50:09;;;;;;;19.55;3.92;;;7.40;79.60;;;;;;5052620;28;20041;-60
2022/02/07 11:52:36;;;;;;;17.48;3.95;;;7.50;79.30;;;;;;5052607;28;20131;-56
2022/02/07 11:55:03;;;;;;;12.50;3.65;;;7.50;77.90;;;;;;5052499;28;20044;-55
2022/02/07 11:57:30;;;;;;;17.55;4.00;;;7.50;78.40;;;;;;5052140;28;20437;-58
2022/02/07 11:59:56;;;;;;;17.08;3.70;;;7.50;78.60;;;;;;5052419;28;20097;-55
2022/02/07 12:02:24;;;;;;;14.75;4.28;;;7.60;79.00;;;;;;5051842;28;20044;-63
2022/02/07 12:04:51;;;;;;;10.60;3.38;;;7.60;77.90;;;;;;5052049;28;20110;-60
2022/02/07 12:07:22;;;;;;;18.30;4.38;;;7.70;77.40;;;;;;5051616;28;20041;-53
2022/02/07 12:09:48;;;;;;;15.23;4.07;;;7.70;77.70;;;;;;5051694;28;20512;-60
2022/02/07 12:12:19;;;;;;;17.52;3.78;;;7.80;77.10;;;;;;5051908;28;20049;-62
2022/02/07 12:14:45;;;;;;;18.75;4.72;;;7.90;76.20;;;;;;5051718;28;20090;-58
2022/02/07 12:17:12;;;;;;;21.33;4.80;;;7.90;76.20;;;;;;5050677;28;20052;-58
2022/02/07 12:19:39;;;;;;;13.25;3.33;;;7.90;75.80;;;;;;5050557;28;20045;-58
2022/02/07 12:22:06;;;;;;;16.55;3.78;;;8.00;75.00;;;;;;5052410;28;20036;-58
2022/02/07 12:24:32;;;;;;;15.52;3.50;;;8.00;75.50;;;;;;5054958;28;20055;-63
2022/02/07 12:27:01;;;;;;;17.42;3.60;;;8.00;75.60;;;;;;5054041;28;20451;-56
2022/02/07 12:29:49;;;;;;;19.00;4.18;;;8.10;74.50;;;;;;5052182;28;20480;-60
2022/02/07 12:32:15;;;;;;;14.45;3.38;;;8.20;74.60;;;;;;5052014;28;20049;-62
2022/02/07 12:34:42;;;;;;;12.65;3.33;;;8.40;72.20;;;;;;5051786;28;20076;-54
2022/02/07 12:37:09;;;;;;;15.45;3.08;;;8.50;72.10;;;;;;5047800;28;20049;-60
2022/02/07 12:39:37;;;;;;;15.13;3.78;;;8.60;70.80;;;;;;5032106;28;20104;-58
2022/02/07 12:42:05;;;;;;;15.80;3.17;;;8.60;71.30;;;;;;5032265;28;20132;-60
2022/02/07 12:44:31;;;;;;;13.35;2.90;;;8.80;69.70;;;;;;5031088;28;20086;-57
2022/02/07 12:46:58;;;;;;;16.30;3.03;;;8.90;70.00;;;;;;5032486;28;20455;-61
2022/02/07 12:49:26;;;;;;;11.43;2.72;;;9.00;68.50;;;;;;5038509;28;20045;-57
2022/02/07 12:51:52;;;;;;;15.55;3.10;;;9.00;68.30;;;;;;5052032;28;20404;-62
2022/02/07 12:54:19;;;;;;;12.65;2.60;;;9.00;67.90;;;;;;5052350;28;20045;-61
2022/02/07 12:56:46;;;;;;;14.40;3.15;;;9.00;67.50;;;;;;5050444;28;20029;-64
2022/02/07 12:59:13;;;;;;;12.60;2.60;;;9.00;68.10;;;;;;5037366;28;20116;-58
2022/02/07 13:01:42;;;;;;;11.38;2.85;;;9.00;68.50;;;;;;5033200;28;20052;-59
2022/02/07 13:04:15;;;;;;;17.40;3.80;;;9.00;68.70;;;;;;5052097;28;20075;-65
2022/02/07 13:06:43;;;;;;;12.73;3.10;;;9.10;68.00;;;;;;5052343;28;20063;-64
2022/02/07 13:09:22;;;;;;;14.35;3.05;;;9.10;68.60;;;;;;5051064;28;20041;-66
2022/02/07 13:12:49;;;;;;;15.70;2.90;;;9.20;68.50;;;;;;5056128;28;20079;-67
2022/02/07 13:14:36;;;;;;;13.60;3.72;;;9.30;67.70;;;;;;5054056;28;20468;-58
2022/02/07 13:17:03;;;;;;;16.63;3.95;;;9.30;68.70;;;;;;5055902;28;20037;-67
2022/02/07 13:19:31;;;;;;;17.90;3.60;;;9.40;67.50;;;;;;5055047;28;20044;-61
2022/02/07 13:21:58;;;;;;;12.30;3.30;;;9.40;68.40;;;;;;5055794;28;20048;-63
2022/02/07 13:24:30;;;;;;;14.88;4.22;;;9.50;67.40;;;;;;5054724;28;20504;-59
2022/02/07 13:26:57;;;;;;;13.25;3.80;;;9.60;66.00;;;;;;5055791;28;20041;-63
2022/02/07 13:29:24;;;;;;;16.17;3.80;;;9.60;66.60;;;;;;5054737;28;20040;-62
2022/02/07 13:31:51;;;;;;;13.77;3.10;;;9.70;66.60;;;;;;5055157;28;20344;-66
2022/02/07 13:34:17;;;;;;;13.90;3.42;;;9.80;66.90;;;;;;5036597;28;20073;-65
2022/02/07 13:36:48;;;;;;;13.15;2.42;;;9.90;66.70;;;;;;5042462;28;20087;-63
2022/02/07 13:39:17;;;;;;;14.55;3.92;;;9.90;65.90;;;;;;5054199;28;20052;-64
2022/02/07 13:41:44;;;;;;;11.10;3.85;;;10.00;65.60;;;;;;5054445;28;20396;-65
2022/02/07 13:44:13;;;;;;;15.43;3.58;;;10.00;64.10;;;;;;5055448;28;20500;-64
2022/02/07 13:46:40;;;;;;;12.88;3.28;;;10.00;64.00;;;;;;5054335;28;20037;-69
2022/02/07 13:49:08;;;;;;;15.38;3.47;;;10.10;65.10;;;;;;5055450;28;20068;-65
2022/02/07 13:51:36;;;;;;;11.00;2.80;;;10.10;64.20;;;;;;5055553;28;20044;-66
2022/02/07 13:54:03;;;;;;;12.25;2.88;;;10.10;62.40;;;;;;5042151;28;20049;-64
2022/02/07 13:56:30;;;;;;;12.18;3.03;;;10.00;62.10;;;;;;5053304;28;20073;-64
2022/02/07 13:58:57;;;;;;;11.55;2.70;;;9.90;61.90;;;;;;5055078;28;20129;-67
2022/02/07 14:01:26;;;;;;;10.30;2.95;;;9.80;62.00;;;;;;5054372;28;20037;-61
2022/02/07 14:03:58;;;;;;;11.77;3.33;;;9.80;63.10;;;;;;5055073;28;20041;-67
2022/02/07 14:06:27;;;;;;;13.88;3.17;;;9.80;62.10;;;;;;5046655;28;20045;-68
2022/02/07 14:08:56;;;;;;;11.50;2.67;;;9.80;60.70;;;;;;5035909;28;20041;-67
2022/02/07 14:11:24;;;;;;;12.52;2.92;;;9.80;60.30;;;;;;5050963;28;20047;-62
2022/02/07 14:13:52;;;;;;;11.38;3.10;;;9.80;60.10;;;;;;5054779;28;20041;-67
2022/02/07 14:16:22;;;;;;;11.07;3.28;;;9.80;60.50;;;;;;5039860;28;20042;-68
2022/02/07 14:18:48;;;;;;;14.93;3.58;;;9.70;61.80;;;;;;5037308;28;20041;-65
2022/02/07 14:21:17;;;;;;;10.77;2.30;;;9.70;61.60;;;;;;5053635;28;20040;-61
2022/02/07 14:23:44;;;;;;;13.80;2.63;;;9.70;60.90;;;;;;5054410;28;20508;-63
2022/02/07 14:26:37;;;;;;;9.20;2.30;;;9.70;61.10;;;;;;5041723;28;20045;-64
2022/02/07 14:29:05;;;;;;;14.48;2.58;;;9.70;62.70;;;;;;5035552;28;20052;-66
2022/02/07 14:31:32;;;;;;;12.20;3.28;;;9.70;62.80;;;;;;5035639;28;20041;-65
2022/02/07 14:33:59;;;;;;;11.75;3.25;;;9.70;64.10;;;;;;5051926;28;20037;-63
2022/02/07 14:36:28;;;;;;;10.90;2.40;;;9.70;65.30;;;;;;5054549;28;20041;-62
2022/02/07 14:38:55;;;;;;;13.07;3.40;;;9.70;65.20;;;;;;5054922;28;20048;-70
2022/02/07 14:41:23;;;;;;;13.32;3.13;;;9.70;65.20;;;;;;5052969;28;20044;-59
2022/02/07 14:43:53;;;;;;;13.23;3.25;;;9.60;65.20;;;;;;5045105;28;20098;-66
2022/02/07 14:46:24;;;;;;;17.33;3.65;;;9.70;65.60;;;;;;5055160;28;20561;-65
2022/02/07 14:48:51;;;;;;;10.90;3.10;;;9.70;66.20;;;;;;5056708;28;20045;-69
2022/02/07 14:51:18;;;;;;;16.88;2.83;;;9.70;67.10;;;;;;5053946;28;20102;-66
2022/02/07 14:53:46;;;;;;;11.15;3.17;;;9.80;67.60;;;;;;5054957;28;20056;-63
2022/02/07 14:56:13;;;;;;;15.05;3.50;;;9.70;68.10;;;;;;5053208;28;20037;-62
2022/02/07 14:58:39;;;;;;;13.57;3.78;;;9.80;68.70;;;;;;5054267;28;20033;-64
2022/02/07 15:01:06;;;;;;;16.92;4.40;;;9.80;68.80;;;;;;5053435;28;20033;-61
2022/02/07 15:03:33;;;;;;;14.32;4.05;;;9.90;68.80;;;;;;5054009;28;20053;-65
2022/02/07 15:06:00;;;;;;;16.00;4.30;;;9.80;68.80;;;;;;5048782;28;20029;-61
2022/02/07 15:08:28;;;;;;;15.93;4.30;;;9.80;69.00;;;;;;5035066;28;20497;-63
2022/02/07 15:10:55;;;;;;;14.65;3.65;;;9.80;69.00;;;;;;5034919;28;20040;-62
2022/02/07 15:13:23;;;;;;;17.83;3.95;;;9.70;70.00;;;;;;5035116;28;20045;-61
2022/02/07 15:15:50;;;;;;;16.08;3.75;;;9.80;70.60;;;;;;5036561;28;20033;-63
2022/02/07 15:18:20;;;;;;;15.23;4.00;;;9.70;71.30;;;;;;5050133;28;20073;-62
2022/02/07 15:20:47;;;;;;;19.73;3.67;;;9.70;71.90;;;;;;5044607;28;20132;-67
2022/02/07 15:23:14;;;;;;;14.40;3.63;;;9.70;72.50;;;;;;5041317;28;20049;-60
2022/02/07 15:25:40;;;;;;;13.07;3.15;;;9.70;72.80;;;;;;5046441;28;20041;-63
2022/02/07 15:28:07;;;;;;;15.05;3.28;;;9.70;73.40;;;;;;5044108;28;20502;-69
2022/02/07 15:30:40;;;;;;;13.85;3.30;;;9.70;74.60;;;;;;5043345;28;20090;-58
2022/02/07 15:33:09;;;;;;;12.23;3.85;;;9.70;75.00;;;;;;5040127;28;20072;-66
2022/02/07 15:35:36;;;;;;;11.93;3.55;;;9.70;74.90;;;;;;5041412;28;20048;-63
2022/02/07 15:38:03;;;;;;;15.60;3.75;;;9.70;75.10;;;;;;5051239;28;20044;-65
2022/02/07 15:40:30;;;;;;;11.05;3.80;;;9.70;75.20;;;;;;5053283;28;20053;-59
2022/02/07 15:42:57;;;;;;;14.00;3.70;;;9.80;74.90;;;;;;5052383;28;20037;-64
2022/02/07 15:45:26;;;;;;;11.70;3.25;;;9.80;74.90;;;;;;5053578;28;20064;-66
2022/02/07 15:47:54;;;;;;;12.98;3.35;;;9.80;75.30;;;;;;5051430;28;20603;-61
2022/02/07 15:50:21;;;;;;;14.00;4.07;;;9.80;75.70;;;;;;5053619;28;20037;-63
2022/02/07 15:52:48;;;;;;;11.70;3.20;;;9.80;76.20;;;;;;5053267;28;20049;-61
2022/02/07 15:55:15;;;;;;;14.38;3.15;;;9.80;76.50;;;;;;5052091;28;20048;-64
2022/02/07 15:57:43;;;;;;;12.73;3.63;;;9.80;76.60;;;;;;5047516;28;20460;-63
2022/02/07 16:00:10;;;;;;;15.38;4.20;;;9.70;76.80;;;;;;5043219;28;20381;-63
2022/02/07 16:02:44;;;;;;;20.33;7.55;;;9.70;76.90;;;;;;5042112;28;20042;-64
2022/02/07 16:05:11;;;;;;;16.17;6.35;;;9.70;77.00;;;;;;5035344;28;20381;-63
2022/02/07 16:07:39;;;;;;;13.43;4.07;;;9.70;77.10;;;;;;5033555;28;20462;-58
2022/02/07 16:10:05;;;;;;;16.25;4.10;;;9.70;77.30;;;;;;5033558;28;20109;-61
2022/02/07 16:12:33;;;;;;;13.70;3.47;;;9.70;77.40;;;;;;5032720;28;20393;-61
2022/02/07 16:15:00;;;;;;;14.02;3.92;;;9.70;77.50;;;;;;5032593;28;20042;-62
2022/02/07 16:17:27;;;;;;;14.77;4.05;;;9.70;77.70;;;;;;5051858;28;20037;-67
2022/02/07 16:19:56;;;;;;;17.77;3.58;;;9.60;77.60;;;;;;5041228;28;20037;-63
2022/02/07 16:22:23;;;;;;;13.65;3.70;;;9.60;77.90;;;;;;5033513;28;20037;-64
2022/02/07 16:24:49;;;;;;;11.82;4.07;;;9.60;78.00;;;;;;5039342;28;20044;-62
2022/02/07 16:27:16;;;;;;;15.35;3.63;;;9.60;78.10;;;;;;5040995;28;20049;-62
2022/02/07 16:29:43;;;;;;;16.40;4.40;;;9.60;78.40;;;;;;5033110;28;20050;-62
2022/02/07 16:32:11;;;;;;;18.35;3.78;;;9.60;78.50;;;;;;5033771;28;20041;-62
2022/02/07 16:34:37;;;;;;;13.30;4.13;;;9.60;78.80;;;;;;5033720;28;20087;-62
2022/02/07 16:37:04;;;;;;;20.48;4.20;;;9.60;79.10;;;;;;5050861;28;20048;-57
2022/02/07 16:39:31;;;;;;;16.35;4.38;;;9.50;79.40;;;;;;5052675;28;20037;-63
2022/02/07 16:41:59;;;;;;;18.65;4.43;;;9.60;79.60;;;;;;5053219;28;20033;-64
2022/02/07 16:44:26;;;;;;;18.75;4.35;;;9.50;79.80;;;;;;5052965;28;20496;-66
2022/02/07 16:46:53;;;;;;;19.45;3.83;;;9.50;79.90;;;;;;5057609;28;20067;-61
2022/02/07 16:49:19;;;;;;;17.88;4.00;;;9.50;80.50;;;;;;5058111;28;20045;-60
2022/02/07 16:51:46;;;;;;;16.92;3.88;;;9.50;80.80;;;;;;5057839;28;20114;-63
2022/02/07 16:54:13;;;;;;;16.55;4.47;;;9.50;81.10;;;;;;5059400;28;20514;-62
2022/02/07 16:56:40;;;;;;;18.55;4.40;;;9.50;81.40;;;;;;5058309;28;20060;-62
2022/02/07 16:59:06;;;;;;;18.25;4.05;;;9.40;82.40;;;;;;5047257;28;20038;-62
2022/02/07 17:01:33;;;;;;;15.68;4.38;;;9.40;82.60;;;;;;5038026;28;20033;-64
2022/02/07 17:04:00;;;;;;;18.17;5.05;;;9.40;82.70;;;;;;5053342;28;20393;-64
2022/02/07 17:06:27;;;;;;;15.77;3.92;;;9.50;83.10;;;;;;5055107;28;20107;-61
2022/02/07 17:08:54;;;;;;;18.38;3.88;;;9.50;83.50;;;;;;5055113;28;20049;-52
2022/02/07 17:11:21;;;;;;;15.57;3.78;;;9.50;83.80;;;;;;5055709;28;20040;-62
2022/02/07 17:13:48;;;;;;;16.08;3.63;;;9.50;84.20;;;;;;5054809;28;20047;-53
2022/02/07 17:16:15;;;;;;;16.45;4.32;;;9.50;85.30;;;;;;5055568;28;20396;-61
2022/02/07 17:18:42;;;;;;;16.58;3.63;;;9.50;85.30;;;;;;5052880;28;20058;-56
2022/02/07 17:21:08;;;;;;;12.80;3.65;;;9.50;85.40;;;;;;5055635;28;20041;-64
2022/02/07 17:23:35;;;;;;;16.42;3.80;;;9.50;85.80;;;;;;5054312;28;20500;-60
2022/02/07 17:26:03;;;;;;;20.50;4.20;;;9.50;86.20;;;;;;5055271;28;20400;-60
2022/02/07 17:28:35;;;;;;;12.75;4.00;;;9.50;86.60;;;;;;5054540;28;20064;-55
2022/02/07 17:31:03;;;;;;;14.38;3.53;;;9.50;86.50;;;;;;5055159;28;20378;-63
2022/02/07 17:33:30;;;;;;;15.05;3.63;;;9.50;86.50;;;;;;5044060;28;20053;-55
2022/02/07 17:35:57;;;;;;;15.48;4.47;;;9.50;86.80;;;;;;5055100;28;20060;-61
2022/02/07 17:38:25;;;;;;;13.73;3.47;;;9.50;87.00;;;;;;5055138;28;20072;-55
2022/02/07 17:40:54;;;;;;;16.92;3.58;;;9.50;87.30;;;;;;5046240;28;20069;-55
2022/02/07 17:45:56;;;;;;;;;;;9.50;87.60;;;;;;5036315;28;20037;-61
2022/02/07 17:48:23;;;;;;;14.05;3.58;;;9.50;87.90;;;;;;5035919;28;19975;-58
2022/02/07 17:50:50;;;;;;;14.35;3.35;;;9.50;87.80;;;;;;5035736;28;20053;-60
2022/02/07 17:53:17;;;;;;;15.35;3.63;;;9.50;88.30;;;;;;5035859;28;20121;-59
2022/02/07 17:55:44;;;;;;;16.17;3.67;;;9.50;88.20;;;;;;5035228;28;20132;-59
2022/02/07 17:58:12;;;;;;;12.15;3.28;;;9.50;88.30;;;;;;5035635;28;20041;-57
2022/02/07 18:00:39;;;;;;;13.68;2.80;;;9.50;88.70;;;;;;5035395;28;20041;-57
2022/02/07 18:03:07;;;;;;;13.02;3.03;;;9.50;89.10;;;;;;5038067;28;20041;-60
2022/02/07 18:05:35;;;;;;;11.52;2.63;;;9.50;89.50;;;;;;5054584;28;20040;-60
2022/02/07 18:08:02;;;;;;;12.88;3.20;;;9.40;89.70;;;;;;5054497;28;20076;-62
2022/02/07 18:10:28;;;;;;;12.48;3.00;;;9.40;90.00;;;;;;5053496;28;20073;-57
2022/02/07 18:12:55;;;;;;;11.07;2.78;;;9.40;89.90;;;;;;5054492;28;20052;-57
2022/02/07 18:15:22;;;;;;;12.80;3.35;;;9.40;90.00;;;;;;5054375;28;20048;-57
2022/02/07 18:17:49;;;;;;;11.48;3.10;;;9.40;90.10;;;;;;5053485;28;20059;-54
2022/02/07 18:20:28;;;;;;;15.23;3.47;;;9.50;90.30;;;;;;5054725;28;20037;-54
2022/02/07 18:22:56;;;;;;;11.73;2.95;;;9.40;90.50;;;;;;5054314;28;20102;-59
2022/02/07 18:25:23;;;;;;;15.43;3.80;;;9.40;90.50;;;;;;5052833;28;20044;-60
2022/02/07 18:27:50;;;;;;;10.85;3.22;;;9.40;91.00;;;;;;5054254;28;20115;-59
2022/02/07 18:30:17;;;;;;;16.65;3.13;;;9.40;91.30;;;;;;5053494;28;20520;-62
2022/02/07 18:32:44;;;;;;;19.15;3.30;;;9.40;91.50;;;;;;5054451;28;20045;-59
2022/02/07 18:35:12;;;;;;;13.13;2.70;;;9.40;91.50;;;;;;5053097;28;20505;-55
2022/02/07 18:37:40;;;;;;;14.48;2.75;;;9.40;91.80;;;;;;5054034;28;20041;-56
2022/02/07 18:40:11;;;;;;;16.77;3.65;;;9.40;91.90;;;;;;5039562;28;20045;-57
2022/02/07 18:42:39;;;;;;;14.93;3.60;;;9.40;92.00;;;;;;5054100;28;20037;-60
2022/02/07 18:45:11;;;;;;;17.17;6.70;;;9.40;92.10;;;;;;5054135;28;20526;-57
2022/02/07 18:47:39;;;;;;;14.35;3.58;;;9.40;92.30;;;;;;5048271;28;20465;-56
2022/02/07 18:50:05;;;;;;;18.38;3.17;;;9.40;92.40;;;;;;5045190;28;20068;-54
2022/02/07 18:52:32;;;;;;;12.82;3.95;;;9.40;92.40;;;;;;5039711;28;20033;-56
2022/02/07 18:54:59;;;;;;;10.88;3.15;;;9.40;92.60;;;;;;5053951;28;20072;-59
2022/02/07 18:57:30;;;;;;;12.18;3.45;;;9.40;92.70;;;;;;5052430;28;20044;-56
2022/02/07 19:00:07;;;;;;;13.65;3.45;;;9.40;92.80;;;;;;5035523;28;20440;-63
2022/02/07 19:02:44;;;;;;;12.60;3.63;;;9.40;92.90;;;;;;5053627;28;20055;-58
2022/02/07 19:07:47;;;;;;;11.10;4.18;;;9.50;93.20;;;;;;5052644;28;20049;-54
2022/02/07 19:10:14;;;;;;;13.27;3.45;;;9.50;93.50;;;;;;5053116;28;20041;-59
2022/02/07 19:12:41;;;;;;;10.43;3.13;;;9.50;93.60;;;;;;5038068;28;20570;-56
2022/02/07 19:15:10;;;;;;;8.38;3.70;;;9.60;93.80;;;;;;5046625;28;20091;-55
2022/02/07 19:17:39;;;;;;;13.38;5.25;;;9.60;93.90;;;;;;5037990;28;20073;-63
2022/02/07 19:20:08;;;;;;;15.60;6.03;;;9.60;93.90;;;;;;5038290;28;20056;-57
2022/02/07 19:22:38;;;;;;;9.02;4.55;;;9.60;94.10;;;;;;5042903;28;20067;-61
2022/02/07 19:25:55;;;;;;;10.25;4.50;;;9.60;94.10;;;;;;5043072;28;20049;-58
2022/02/07 19:28:02;;;;;;;12.15;4.47;;;9.60;94.30;;;;;;5048695;28;20057;-59
2022/02/07 19:30:29;;;;;;;15.27;5.57;;;9.60;94.30;;;;;;5043461;28;20037;-52
2022/02/07 19:33:02;;;;;;;9.40;5.30;;;9.60;94.50;;;;;;5045646;28;20034;-60
2022/02/07 19:35:37;;;;;;;11.45;4.40;;;9.60;94.40;;;;;;5042824;28;20045;-57
2022/02/07 19:38:03;;;;;;;12.95;4.20;;;9.60;94.40;;;;;;5043080;28;20037;-55
2022/02/07 19:40:31;;;;;;;15.68;4.57;;;9.60;94.60;;;;;;5033695;28;20041;-57
2022/02/07 19:45:36;;;;;;;12.15;4.72;;;9.60;94.60;;;;;;5037953;28;20068;-54
2022/02/07 19:48:03;;;;;;;11.38;5.00;;;9.60;94.80;;;;;;5033791;28;20087;-56
2022/02/07 19:50:29;;;;;;;12.20;4.75;;;9.60;94.80;;;;;;5046894;28;20051;-55
2022/02/07 19:52:56;;;;;;;11.13;4.68;;;9.60;94.80;;;;;;5052934;28;20052;-57
2022/02/07 19:55:23;;;;;;;11.68;5.22;;;9.60;94.90;;;;;;5050203;28;20041;-55
2022/02/07 19:57:51;;;;;;;13.20;6.05;;;9.60;94.90;;;;;;5041169;28;20045;-62
2022/02/07 20:00:18;;;;;;;14.57;5.13;;;9.60;95.00;;;;;;5051433;28;20128;-57
2022/02/07 20:02:45;;;;;;;13.90;5.60;;;9.60;95.10;;;;;;5052786;28;20063;-57
2022/02/07 20:05:13;;;;;;;9.55;5.03;;;9.70;95.10;;;;;;5051710;28;20071;-56
2022/02/07 20:07:39;;;;;;;10.25;4.85;;;9.70;95.10;;;;;;5043488;28;20042;-58
2022/02/07 20:10:08;;;;;;;10.60;5.05;;;9.70;95.20;;;;;;5035858;28;20155;-57
2022/02/07 20:12:35;;;;;;;9.75;4.95;;;9.70;95.20;;;;;;5051043;28;20110;-56
2022/02/07 20:15:02;;;;;;;14.60;4.93;;;9.80;95.20;;;;;;5051197;28;20051;-59
2022/02/07 20:17:29;;;;;;;12.57;5.68;;;9.80;95.30;;;;;;5052178;28;20392;-53
2022/02/07 20:19:58;;;;;;;10.48;5.13;;;9.80;95.40;;;;;;5052144;28;20037;-62
2022/02/07 20:22:25;;;;;;;9.02;4.90;;;9.80;95.50;;;;;;5051019;28;20068;-53
2022/02/07 20:24:52;;;;;;;14.05;5.60;;;9.80;95.60;;;;;;5052319;28;20140;-58
2022/02/07 20:27:20;;;;;;;12.48;5.18;;;9.80;95.80;;;;;;5044241;28;20041;-61
2022/02/07 20:29:47;;;;;;;13.70;5.10;;;9.80;95.80;;;;;;5033061;28;20049;-54
2022/02/07 20:32:15;;;;;;;13.60;5.70;;;9.80;95.90;;;;;;5047141;28;20084;-63
2022/02/07 20:34:42;;;;;;;17.80;5.07;;;9.80;96.00;;;;;;5050853;28;20075;-64
2022/02/07 20:37:11;;;;;;;10.77;5.35;;;9.80;96.20;;;;;;5050817;28;20396;-57
2022/02/07 20:39:38;;;;;;;10.80;4.75;;;9.80;96.30;;;;;;5051041;28;20040;-55
2022/02/07 20:42:05;;;;;;;9.20;4.82;;;9.90;96.60;;;;;;5050915;28;20388;-58
2022/02/07 20:44:32;;;;;;;12.55;5.50;;;9.90;96.70;;;;;;5052073;28;20057;-59
2022/02/07 20:46:58;;;;;;;9.90;5.30;;;9.80;96.70;;;;;;5052003;28;20037;-54
2022/02/07 20:49:33;;;;;;;11.77;5.00;;;9.90;96.80;;;;;;5052108;28;20480;-54
2022/02/07 20:52:00;;;;;;;10.32;5.32;;;9.90;96.80;;;;;;5044696;28;20050;-60
2022/02/07 20:54:27;;;;;;;9.68;4.60;;;9.90;96.70;;;;;;5044473;28;20111;-59
2022/02/07 20:57:16;;;;;;;8.40;4.60;;;10.00;96.80;;;;;;5051800;28;20554;-61
2022/02/07 21:00:03;;;;;;;9.13;4.53;;;10.00;96.60;;;;;;5039294;28;20435;-57
2022/02/07 21:02:34;;;;;;;10.00;5.05;;;10.00;96.50;;;;;;5032887;28;20091;-62
2022/02/07 21:05:06;;;;;;;9.98;5.30;;;10.10;96.60;;;;;;5044957;28;20040;-58
2022/02/07 21:07:37;;;;;;;16.55;6.82;;;10.10;96.60;;;;;;5033336;28;20038;-55
2022/02/07 21:10:06;;;;;;;6.43;3.90;;;10.10;96.50;;;;;;5051984;28;20048;-63
2022/02/07 21:12:33;;;;;;;11.68;4.20;;;10.10;96.50;;;;;;5050971;28;20082;-57
2022/02/07 21:15:02;;;;;;;7.90;4.25;;;10.10;96.60;;;;;;5051634;28;20080;-54
2022/02/07 21:17:28;;;;;;;7.43;4.00;;;10.20;96.50;;;;;;5051583;28;20040;-57
2022/02/07 21:19:55;;;;;;;8.48;3.72;;;10.20;96.30;;;;;;5051754;28;20045;-57
2022/02/07 21:22:24;;;;;;;6.63;2.88;;;10.30;96.20;;;;;;5051617;28;20066;-56
2022/02/07 21:24:51;;;;;;;6.97;3.67;;;10.30;96.10;;;;;;5038670;28;20474;-57
2022/02/07 21:27:18;;;;;;;7.47;3.28;;;10.30;96.00;;;;;;5051052;28;20059;-57
2022/02/07 21:29:45;;;;;;;6.35;3.20;;;10.40;95.90;;;;;;5044801;28;20041;-63
2022/02/07 21:32:12;;;;;;;5.65;3.00;;;10.40;95.90;;;;;;5041421;28;20045;-58
2022/02/07 21:34:39;;;;;;;5.20;2.92;;;10.40;95.80;;;;;;5055313;28;20048;-61
2022/02/07 21:37:08;;;;;;;5.93;3.13;;;10.40;95.60;;;;;;5053880;28;20041;-59
2022/02/07 21:39:35;;;;;;;10.70;4.13;;;10.50;95.60;;;;;;5055091;28;20037;-58
2022/02/07 21:42:02;;;;;;;6.88;3.00;;;10.50;95.50;;;;;;5054196;28;20185;-60
2022/02/07 21:44:29;;;;;;;6.68;2.50;;;10.50;95.20;;;;;;5055023;28;20047;-58
2022/02/07 21:46:57;;;;;;;6.28;2.50;;;10.50;95.00;;;;;;5054158;28;20492;-56
2022/02/07 21:49:24;;;;;;;4.82;2.40;;;10.50;94.90;;;;;;5054967;28;20041;-58
2022/02/07 21:51:54;;;;;;;7.30;2.13;;;10.60;94.80;;;;;;5054334;28;20098;-56
2022/02/07 21:54:21;;;;;;;6.68;2.70;;;10.60;94.80;;;;;;5035589;28;20123;-55
2022/02/07 21:56:48;;;;;;;4.43;2.28;;;10.60;94.80;;;;;;5035518;28;20087;-57
2022/02/07 21:59:15;;;;;;;6.35;2.50;;;10.60;94.80;;;;;;5035736;28;20087;-59
2022/02/07 22:01:41;;;;;;;6.63;2.70;;;10.60;94.80;;;;;;5035740;28;20088;-56
2022/02/07 22:04:08;;;;;;;6.25;2.53;;;10.60;94.80;;;;;;5042239;28;20037;-58
2022/02/07 22:06:35;;;;;;;6.53;2.40;;;10.50;94.70;;;;;;5035082;28;20041;-54
2022/02/07 22:09:06;;;;;;;5.68;2.22;;;10.60;94.70;;;;;;5035460;28;20045;-58